sensor_id;sensor_type;location;lat;lon;timestamp;temperature;humidity
3940;DHT22;1984;48.312;9.244;2023-04-29T00:00:34;10.70;99.90
3940;DHT22;1984;48.312;9.244;2023-04-29T00:03:00;10.60;99.90
3940;DHT22;1984;48.312;9.244;2023-04-29T00:05:26;10.50;99.90
3940;DHT22;1984;48.312;9.244;2023-04-29T00:07:51;10.40;99.90
3940;DHT22;1984;48.312;9.244;2023-04-29T00:10:17;10.40;99.90
3940;DHT22;1984;48.312;9.244;2023-04-29T00:12:43;10.40;99.90
3940;DHT22;1984;48.312;9.244;2023-04-29T00:15:08;10.40;99.90
3940;DHT22;1984;48.312;9.244;2023-04-29T00:17:34;10.30;99.90
3940;DHT22;1984;48.312;9.244;2023-04-29T00:20:01;10.30;99.90
3940;DHT22;1984;48.312;9.244;2023-04-29T00:22:27;10.30;99.90
3940;DHT22;1984;48.312;9.244;2023-04-29T00:24:52;10.30;99.90
3940;DHT22;1984;48.312;9.244;2023-04-29T00:27:18;10.30;99.90
3940;DHT22;1984;48.312;9.244;2023-04-29T00:29:44;10.30;99.90
3940;DHT22;1984;48.312;9.244;2023-04-29T00:32:09;10.30;99.90
3940;DHT22;1984;48.312;9.244;2023-04-29T00:34:35;10.30;99.90
3940;DHT22;1984;48.312;9.244;2023-04-29T00:37:00;10.30;99.90
3940;DHT22;1984;48.312;9.244;2023-04-29T00:39:26;10.30;99.90
3940;DHT22;1984;48.312;9.244;2023-04-29T00:41:52;10.30;99.90
3940;DHT22;1984;48.312;9.244;2023-04-29T00:44:17;10.30;99.90
3940;DHT22;1984;48.312;9.244;2023-04-29T00:46:43;10.30;99.90
3940;DHT22;1984;48.312;9.244;2023-04-29T00:49:09;10.30;99.90
3940;DHT22;1984;48.312;9.244;2023-04-29T00:51:36;10.30;99.90
3940;DHT22;1984;48.312;9.244;2023-04-29T00:54:06;10.30;99.90
3940;DHT22;1984;48.312;9.244;2023-04-29T00:56:33;10.20;99.90
3940;DHT22;1984;48.312;9.244;2023-04-29T00:59:00;10.20;99.90
3940;DHT22;1984;48.312;9.244;2023-04-29T01:01:27;10.20;99.90
3940;DHT22;1984;48.312;9.244;2023-04-29T01:03:53;10.20;99.90
3940;DHT22;1984;48.312;9.244;2023-04-29T01:10:02;10.20;99.90
3940;DHT22;1984;48.312;9.244;2023-04-29T01:12:58;10.20;99.90
3940;DHT22;1984;48.312;9.244;2023-04-29T01:18:19;10.20;99.90
3940;DHT22;1984;48.312;9.244;2023-04-29T01:20:45;10.10;99.90
3940;DHT22;1984;48.312;9.244;2023-04-29T01:23:11;10.20;99.90
3940;DHT22;1984;48.312;9.244;2023-04-29T01:25:36;10.10;99.90
3940;DHT22;1984;48.312;9.244;2023-04-29T01:31:03;10.10;99.90
3940;DHT22;1984;48.312;9.244;2023-04-29T01:33:43;10.10;99.90
3940;DHT22;1984;48.312;9.244;2023-04-29T01:36:30;10.10;99.90
3940;DHT22;1984;48.312;9.244;2023-04-29T01:39:26;10.10;99.90
3940;DHT22;1984;48.312;9.244;2023-04-29T01:42:09;10.00;99.90
3940;DHT22;1984;48.312;9.244;2023-04-29T01:44:38;10.00;99.90
3940;DHT22;1984;48.312;9.244;2023-04-29T01:47:05;9.90;99.90
3940;DHT22;1984;48.312;9.244;2023-04-29T01:49:35;9.90;99.90
3940;DHT22;1984;48.312;9.244;2023-04-29T01:52:01;9.90;99.90
3940;DHT22;1984;48.312;9.244;2023-04-29T01:54:26;9.90;99.90
3940;DHT22;1984;48.312;9.244;2023-04-29T01:56:52;9.90;99.90
3940;DHT22;1984;48.312;9.244;2023-04-29T01:59:18;9.90;99.90
3940;DHT22;1984;48.312;9.244;2023-04-29T02:01:43;9.90;99.90
3940;DHT22;1984;48.312;9.244;2023-04-29T02:04:09;9.80;99.90
3940;DHT22;1984;48.312;9.244;2023-04-29T02:06:34;9.90;99.90
3940;DHT22;1984;48.312;9.244;2023-04-29T02:09:00;9.90;99.90
3940;DHT22;1984;48.312;9.244;2023-04-29T02:11:25;9.80;99.90
3940;DHT22;1984;48.312;9.244;2023-04-29T02:13:51;9.80;99.90
3940;DHT22;1984;48.312;9.244;2023-04-29T02:16:17;9.80;99.90
3940;DHT22;1984;48.312;9.244;2023-04-29T02:18:43;9.80;99.90
3940;DHT22;1984;48.312;9.244;2023-04-29T02:21:08;9.70;99.90
3940;DHT22;1984;48.312;9.244;2023-04-29T02:23:34;9.70;99.90
3940;DHT22;1984;48.312;9.244;2023-04-29T02:26:00;9.70;99.90
3940;DHT22;1984;48.312;9.244;2023-04-29T02:28:26;9.70;99.90
3940;DHT22;1984;48.312;9.244;2023-04-29T02:30:52;9.60;99.90
3940;DHT22;1984;48.312;9.244;2023-04-29T02:33:17;9.60;99.90
3940;DHT22;1984;48.312;9.244;2023-04-29T02:35:43;9.60;99.90
3940;DHT22;1984;48.312;9.244;2023-04-29T02:38:09;9.60;99.90
3940;DHT22;1984;48.312;9.244;2023-04-29T02:40:40;9.60;99.90
3940;DHT22;1984;48.312;9.244;2023-04-29T02:43:06;9.60;99.90
3940;DHT22;1984;48.312;9.244;2023-04-29T02:45:31;9.60;99.90
3940;DHT22;1984;48.312;9.244;2023-04-29T02:47:57;9.50;99.90
3940;DHT22;1984;48.312;9.244;2023-04-29T02:50:22;9.50;99.90
3940;DHT22;1984;48.312;9.244;2023-04-29T02:52:49;9.50;99.90
3940;DHT22;1984;48.312;9.244;2023-04-29T02:55:15;9.40;99.90
3940;DHT22;1984;48.312;9.244;2023-04-29T02:57:41;9.40;99.90
3940;DHT22;1984;48.312;9.244;2023-04-29T03:00:08;9.40;99.90
3940;DHT22;1984;48.312;9.244;2023-04-29T03:02:34;9.40;99.90
3940;DHT22;1984;48.312;9.244;2023-04-29T03:05:00;9.40;99.90
3940;DHT22;1984;48.312;9.244;2023-04-29T03:07:25;9.40;99.90
3940;DHT22;1984;48.312;9.244;2023-04-29T03:09:52;9.40;99.90
3940;DHT22;1984;48.312;9.244;2023-04-29T03:12:17;9.40;99.90
3940;DHT22;1984;48.312;9.244;2023-04-29T03:14:43;9.40;99.90
3940;DHT22;1984;48.312;9.244;2023-04-29T03:17:08;9.30;99.90
3940;DHT22;1984;48.312;9.244;2023-04-29T03:19:34;9.30;99.90
3940;DHT22;1984;48.312;9.244;2023-04-29T03:22:00;9.30;99.90
3940;DHT22;1984;48.312;9.244;2023-04-29T03:24:25;9.30;99.90
3940;DHT22;1984;48.312;9.244;2023-04-29T03:26:51;9.30;99.90
3940;DHT22;1984;48.312;9.244;2023-04-29T03:29:16;9.30;99.90
3940;DHT22;1984;48.312;9.244;2023-04-29T03:31:42;9.30;99.90
3940;DHT22;1984;48.312;9.244;2023-04-29T03:34:08;9.30;99.90
3940;DHT22;1984;48.312;9.244;2023-04-29T03:36:33;9.30;99.90
3940;DHT22;1984;48.312;9.244;2023-04-29T03:38:59;9.30;99.90
3940;DHT22;1984;48.312;9.244;2023-04-29T03:41:24;9.30;99.90
3940;DHT22;1984;48.312;9.244;2023-04-29T03:43:50;9.30;99.90
3940;DHT22;1984;48.312;9.244;2023-04-29T03:46:16;9.20;99.90
3940;DHT22;1984;48.312;9.244;2023-04-29T03:48:41;9.20;99.90
3940;DHT22;1984;48.312;9.244;2023-04-29T03:51:07;9.20;99.90
3940;DHT22;1984;48.312;9.244;2023-04-29T03:53:33;9.10;99.90
3940;DHT22;1984;48.312;9.244;2023-04-29T03:55:59;9.10;99.90
3940;DHT22;1984;48.312;9.244;2023-04-29T03:58:25;9.10;99.90
3940;DHT22;1984;48.312;9.244;2023-04-29T04:00:50;9.10;99.90
3940;DHT22;1984;48.312;9.244;2023-04-29T04:03:16;9.20;99.90
3940;DHT22;1984;48.312;9.244;2023-04-29T04:05:41;9.10;99.90
3940;DHT22;1984;48.312;9.244;2023-04-29T04:08:07;9.10;99.90
3940;DHT22;1984;48.312;9.244;2023-04-29T04:10:32;9.10;99.90
3940;DHT22;1984;48.312;9.244;2023-04-29T04:12:58;9.00;99.90
3940;DHT22;1984;48.312;9.244;2023-04-29T04:15:23;9.00;99.90
3940;DHT22;1984;48.312;9.244;2023-04-29T04:17:49;9.00;99.90
3940;DHT22;1984;48.312;9.244;2023-04-29T04:20:14;9.00;99.90
3940;DHT22;1984;48.312;9.244;2023-04-29T04:22:40;9.00;99.90
3940;DHT22;1984;48.312;9.244;2023-04-29T04:25:06;9.00;99.90
3940;DHT22;1984;48.312;9.244;2023-04-29T04:27:32;9.00;99.90
3940;DHT22;1984;48.312;9.244;2023-04-29T04:29:58;9.10;99.90
3940;DHT22;1984;48.312;9.244;2023-04-29T04:32:23;9.10;99.90
3940;DHT22;1984;48.312;9.244;2023-04-29T04:34:49;9.10;99.90
3940;DHT22;1984;48.312;9.244;2023-04-29T04:37:15;9.20;99.90
3940;DHT22;1984;48.312;9.244;2023-04-29T04:39:40;9.20;99.90
3940;DHT22;1984;48.312;9.244;2023-04-29T04:42:06;9.20;99.90
3940;DHT22;1984;48.312;9.244;2023-04-29T04:44:32;9.20;99.90
3940;DHT22;1984;48.312;9.244;2023-04-29T04:46:58;9.20;99.90
3940;DHT22;1984;48.312;9.244;2023-04-29T04:49:25;9.20;99.90
3940;DHT22;1984;48.312;9.244;2023-04-29T04:51:51;9.20;99.90
3940;DHT22;1984;48.312;9.244;2023-04-29T04:54:17;9.30;99.90
3940;DHT22;1984;48.312;9.244;2023-04-29T04:56:43;9.30;99.90
3940;DHT22;1984;48.312;9.244;2023-04-29T04:59:08;9.30;99.90
3940;DHT22;1984;48.312;9.244;2023-04-29T05:01:34;9.40;99.90
3940;DHT22;1984;48.312;9.244;2023-04-29T05:03:59;9.30;99.90
3940;DHT22;1984;48.312;9.244;2023-04-29T05:06:26;9.30;99.90
3940;DHT22;1984;48.312;9.244;2023-04-29T05:08:52;9.20;99.90
3940;DHT22;1984;48.312;9.244;2023-04-29T05:11:18;9.20;99.90
3940;DHT22;1984;48.312;9.244;2023-04-29T05:13:44;9.20;99.90
3940;DHT22;1984;48.312;9.244;2023-04-29T05:16:10;9.30;99.90
3940;DHT22;1984;48.312;9.244;2023-04-29T05:18:36;9.30;99.90
3940;DHT22;1984;48.312;9.244;2023-04-29T05:21:01;9.30;99.90
3940;DHT22;1984;48.312;9.244;2023-04-29T05:23:27;9.40;99.90
3940;DHT22;1984;48.312;9.244;2023-04-29T05:25:52;9.60;99.90
3940;DHT22;1984;48.312;9.244;2023-04-29T05:28:18;9.70;99.90
3940;DHT22;1984;48.312;9.244;2023-04-29T05:30:44;9.80;99.90
3940;DHT22;1984;48.312;9.244;2023-04-29T05:33:10;9.90;99.90
3940;DHT22;1984;48.312;9.244;2023-04-29T05:35:36;9.90;99.90
3940;DHT22;1984;48.312;9.244;2023-04-29T05:38:02;10.00;99.90
3940;DHT22;1984;48.312;9.244;2023-04-29T05:40:27;10.10;99.90
3940;DHT22;1984;48.312;9.244;2023-04-29T05:42:53;10.20;99.90
3940;DHT22;1984;48.312;9.244;2023-04-29T05:45:19;10.40;99.90
3940;DHT22;1984;48.312;9.244;2023-04-29T05:47:45;10.50;99.90
3940;DHT22;1984;48.312;9.244;2023-04-29T05:50:10;10.50;99.90
3940;DHT22;1984;48.312;9.244;2023-04-29T05:52:36;10.50;99.90
3940;DHT22;1984;48.312;9.244;2023-04-29T05:55:01;10.60;99.90
3940;DHT22;1984;48.312;9.244;2023-04-29T05:57:27;10.70;99.90
3940;DHT22;1984;48.312;9.244;2023-04-29T05:59:53;10.90;99.90
3940;DHT22;1984;48.312;9.244;2023-04-29T06:02:22;11.20;99.90
3940;DHT22;1984;48.312;9.244;2023-04-29T06:04:47;11.40;99.90
3940;DHT22;1984;48.312;9.244;2023-04-29T06:07:13;11.60;99.90
3940;DHT22;1984;48.312;9.244;2023-04-29T06:09:39;11.80;99.90
3940;DHT22;1984;48.312;9.244;2023-04-29T06:12:04;12.00;99.90
3940;DHT22;1984;48.312;9.244;2023-04-29T06:14:30;12.10;99.90
3940;DHT22;1984;48.312;9.244;2023-04-29T06:16:56;12.20;99.90
3940;DHT22;1984;48.312;9.244;2023-04-29T06:19:21;12.30;99.90
3940;DHT22;1984;48.312;9.244;2023-04-29T06:21:47;12.50;99.90
3940;DHT22;1984;48.312;9.244;2023-04-29T06:24:13;12.60;99.90
3940;DHT22;1984;48.312;9.244;2023-04-29T06:26:38;12.70;99.90
3940;DHT22;1984;48.312;9.244;2023-04-29T06:29:04;12.80;99.90
3940;DHT22;1984;48.312;9.244;2023-04-29T06:31:29;12.70;99.90
3940;DHT22;1984;48.312;9.244;2023-04-29T06:33:55;12.80;99.90
3940;DHT22;1984;48.312;9.244;2023-04-29T06:36:20;12.80;99.90
3940;DHT22;1984;48.312;9.244;2023-04-29T06:38:46;12.80;99.90
3940;DHT22;1984;48.312;9.244;2023-04-29T06:41:11;12.90;99.90
3940;DHT22;1984;48.312;9.244;2023-04-29T06:43:37;13.20;99.90
3940;DHT22;1984;48.312;9.244;2023-04-29T06:46:03;13.50;99.90
3940;DHT22;1984;48.312;9.244;2023-04-29T06:48:28;13.70;99.90
3940;DHT22;1984;48.312;9.244;2023-04-29T06:50:55;14.10;99.90
3940;DHT22;1984;48.312;9.244;2023-04-29T06:53:22;14.20;99.90
3940;DHT22;1984;48.312;9.244;2023-04-29T06:55:48;14.10;99.90
3940;DHT22;1984;48.312;9.244;2023-04-29T06:58:14;14.20;99.90
3940;DHT22;1984;48.312;9.244;2023-04-29T07:00:44;14.10;99.90
3940;DHT22;1984;48.312;9.244;2023-04-29T07:03:09;14.20;99.90
3940;DHT22;1984;48.312;9.244;2023-04-29T07:05:35;14.40;99.90
3940;DHT22;1984;48.312;9.244;2023-04-29T07:08:04;14.40;99.90
3940;DHT22;1984;48.312;9.244;2023-04-29T07:10:29;14.40;99.90
3940;DHT22;1984;48.312;9.244;2023-04-29T07:12:55;14.50;99.90
3940;DHT22;1984;48.312;9.244;2023-04-29T07:15:21;14.70;99.90
3940;DHT22;1984;48.312;9.244;2023-04-29T07:17:46;14.80;99.90
3940;DHT22;1984;48.312;9.244;2023-04-29T07:20:12;15.00;99.90
3940;DHT22;1984;48.312;9.244;2023-04-29T07:22:38;15.10;99.90
3940;DHT22;1984;48.312;9.244;2023-04-29T07:25:04;15.10;99.90
3940;DHT22;1984;48.312;9.244;2023-04-29T07:27:32;14.90;99.90
3940;DHT22;1984;48.312;9.244;2023-04-29T07:29:59;15.10;99.90
3940;DHT22;1984;48.312;9.244;2023-04-29T07:32:28;15.20;99.90
3940;DHT22;1984;48.312;9.244;2023-04-29T07:34:56;15.20;99.90
3940;DHT22;1984;48.312;9.244;2023-04-29T07:37:21;15.40;99.90
3940;DHT22;1984;48.312;9.244;2023-04-29T07:39:47;15.40;99.90
3940;DHT22;1984;48.312;9.244;2023-04-29T07:42:12;15.30;99.90
3940;DHT22;1984;48.312;9.244;2023-04-29T07:44:38;15.10;99.90
3940;DHT22;1984;48.312;9.244;2023-04-29T07:47:03;15.30;99.90
3940;DHT22;1984;48.312;9.244;2023-04-29T07:49:29;15.70;99.90
3940;DHT22;1984;48.312;9.244;2023-04-29T07:51:54;15.90;99.90
3940;DHT22;1984;48.312;9.244;2023-04-29T07:54:20;16.10;99.90
3940;DHT22;1984;48.312;9.244;2023-04-29T07:56:46;16.40;99.90
3940;DHT22;1984;48.312;9.244;2023-04-29T07:59:12;16.90;99.90
3940;DHT22;1984;48.312;9.244;2023-04-29T08:01:39;17.10;99.90
3940;DHT22;1984;48.312;9.244;2023-04-29T08:04:05;16.80;99.90
3940;DHT22;1984;48.312;9.244;2023-04-29T08:06:31;16.70;99.90
3940;DHT22;1984;48.312;9.244;2023-04-29T08:08:57;16.60;99.90
3940;DHT22;1984;48.312;9.244;2023-04-29T08:11:22;16.60;99.90
3940;DHT22;1984;48.312;9.244;2023-04-29T08:13:49;16.40;99.90
3940;DHT22;1984;48.312;9.244;2023-04-29T08:16:15;16.20;99.90
3940;DHT22;1984;48.312;9.244;2023-04-29T08:18:41;16.10;99.90
3940;DHT22;1984;48.312;9.244;2023-04-29T08:21:07;16.20;99.90
3940;DHT22;1984;48.312;9.244;2023-04-29T08:23:33;16.80;99.90
3940;DHT22;1984;48.312;9.244;2023-04-29T08:25:59;17.80;99.90
3940;DHT22;1984;48.312;9.244;2023-04-29T08:28:25;18.40;99.90
3940;DHT22;1984;48.312;9.244;2023-04-29T08:30:52;18.70;99.90
3940;DHT22;1984;48.312;9.244;2023-04-29T08:33:17;19.20;99.90
3940;DHT22;1984;48.312;9.244;2023-04-29T08:35:43;19.60;99.90
3940;DHT22;1984;48.312;9.244;2023-04-29T08:38:09;19.70;99.90
3940;DHT22;1984;48.312;9.244;2023-04-29T08:40:40;19.20;99.90
3940;DHT22;1984;48.312;9.244;2023-04-29T08:43:07;18.80;99.90
3940;DHT22;1984;48.312;9.244;2023-04-29T08:45:35;18.10;99.90
3940;DHT22;1984;48.312;9.244;2023-04-29T08:48:05;17.70;99.90
3940;DHT22;1984;48.312;9.244;2023-04-29T08:50:35;17.50;99.90
3940;DHT22;1984;48.312;9.244;2023-04-29T08:53:01;17.40;99.90
3940;DHT22;1984;48.312;9.244;2023-04-29T08:55:27;17.30;99.90
3940;DHT22;1984;48.312;9.244;2023-04-29T08:57:54;17.30;99.90
3940;DHT22;1984;48.312;9.244;2023-04-29T09:00:21;17.20;99.90
3940;DHT22;1984;48.312;9.244;2023-04-29T09:02:49;17.40;99.90
3940;DHT22;1984;48.312;9.244;2023-04-29T09:05:15;18.10;99.90
3940;DHT22;1984;48.312;9.244;2023-04-29T09:07:43;19.20;99.90
3940;DHT22;1984;48.312;9.244;2023-04-29T09:10:09;19.90;99.90
3940;DHT22;1984;48.312;9.244;2023-04-29T09:12:36;21.20;99.90
3940;DHT22;1984;48.312;9.244;2023-04-29T09:15:02;21.90;99.90
3940;DHT22;1984;48.312;9.244;2023-04-29T09:17:47;21.70;99.90
3940;DHT22;1984;48.312;9.244;2023-04-29T09:22:52;21.00;99.90
3940;DHT22;1984;48.312;9.244;2023-04-29T09:25:18;20.70;99.90
3940;DHT22;1984;48.312;9.244;2023-04-29T09:27:44;19.90;99.90
3940;DHT22;1984;48.312;9.244;2023-04-29T09:30:10;19.30;99.90
3940;DHT22;1984;48.312;9.244;2023-04-29T09:32:37;18.80;99.90
3940;DHT22;1984;48.312;9.244;2023-04-29T09:35:22;18.10;99.90
3940;DHT22;1984;48.312;9.244;2023-04-29T09:38:11;17.80;99.90
3940;DHT22;1984;48.312;9.244;2023-04-29T09:40:38;18.00;99.90
3940;DHT22;1984;48.312;9.244;2023-04-29T09:43:14;18.50;99.90
3940;DHT22;1984;48.312;9.244;2023-04-29T09:45:41;18.90;99.90
3940;DHT22;1984;48.312;9.244;2023-04-29T09:48:08;19.70;99.90
3940;DHT22;1984;48.312;9.244;2023-04-29T09:50:35;20.70;99.90
3940;DHT22;1984;48.312;9.244;2023-04-29T09:53:01;21.50;99.90
3940;DHT22;1984;48.312;9.244;2023-04-29T09:55:27;22.40;99.90
3940;DHT22;1984;48.312;9.244;2023-04-29T09:57:54;23.40;99.90
3940;DHT22;1984;48.312;9.244;2023-04-29T10:00:20;24.50;99.90
3940;DHT22;1984;48.312;9.244;2023-04-29T10:02:46;25.20;99.90
3940;DHT22;1984;48.312;9.244;2023-04-29T10:05:13;25.70;99.90
3940;DHT22;1984;48.312;9.244;2023-04-29T10:07:39;24.90;99.90
3940;DHT22;1984;48.312;9.244;2023-04-29T10:10:06;23.70;99.90
3940;DHT22;1984;48.312;9.244;2023-04-29T10:12:34;22.30;99.90
3940;DHT22;1984;48.312;9.244;2023-04-29T10:17:48;21.60;99.90
3940;DHT22;1984;48.312;9.244;2023-04-29T10:20:16;20.60;99.90
3940;DHT22;1984;48.312;9.244;2023-04-29T10:25:16;19.20;99.90
3940;DHT22;1984;48.312;9.244;2023-04-29T10:27:43;18.80;99.90
3940;DHT22;1984;48.312;9.244;2023-04-29T10:30:17;18.20;99.90
3940;DHT22;1984;48.312;9.244;2023-04-29T10:32:43;17.90;99.90
3940;DHT22;1984;48.312;9.244;2023-04-29T10:35:11;17.60;99.90
3940;DHT22;1984;48.312;9.244;2023-04-29T10:37:41;18.30;99.90
3940;DHT22;1984;48.312;9.244;2023-04-29T10:40:30;18.90;99.90
3940;DHT22;1984;48.312;9.244;2023-04-29T10:43:00;20.60;99.90
3940;DHT22;1984;48.312;9.244;2023-04-29T10:45:30;22.20;99.90
3940;DHT22;1984;48.312;9.244;2023-04-29T10:53:04;24.40;99.90
3940;DHT22;1984;48.312;9.244;2023-04-29T10:55:30;24.10;99.30
3940;DHT22;1984;48.312;9.244;2023-04-29T10:57:56;23.20;99.90
3940;DHT22;1984;48.312;9.244;2023-04-29T11:00:26;22.20;99.90
3940;DHT22;1984;48.312;9.244;2023-04-29T11:02:55;21.30;99.90
3940;DHT22;1984;48.312;9.244;2023-04-29T11:05:34;20.50;99.90
3940;DHT22;1984;48.312;9.244;2023-04-29T11:08:10;19.70;99.90
3940;DHT22;1984;48.312;9.244;2023-04-29T11:10:41;19.60;99.90
3940;DHT22;1984;48.312;9.244;2023-04-29T11:13:27;20.00;99.90
3940;DHT22;1984;48.312;9.244;2023-04-29T11:16:07;20.30;99.90
3940;DHT22;1984;48.312;9.244;2023-04-29T11:18:34;20.70;99.90
3940;DHT22;1984;48.312;9.244;2023-04-29T11:23:40;20.90;99.90
3940;DHT22;1984;48.312;9.244;2023-04-29T11:26:07;20.70;99.90
3940;DHT22;1984;48.312;9.244;2023-04-29T11:28:33;20.70;99.90
3940;DHT22;1984;48.312;9.244;2023-04-29T11:30:59;20.90;99.90
3940;DHT22;1984;48.312;9.244;2023-04-29T11:33:26;20.70;99.90
3940;DHT22;1984;48.312;9.244;2023-04-29T11:35:53;20.60;99.90
3940;DHT22;1984;48.312;9.244;2023-04-29T11:38:26;20.60;99.90
3940;DHT22;1984;48.312;9.244;2023-04-29T11:40:54;20.60;99.90
3940;DHT22;1984;48.312;9.244;2023-04-29T11:43:21;20.40;99.90
3940;DHT22;1984;48.312;9.244;2023-04-29T11:45:48;20.00;99.90
3940;DHT22;1984;48.312;9.244;2023-04-29T11:48:17;19.70;99.90
3940;DHT22;1984;48.312;9.244;2023-04-29T11:50:45;19.60;99.90
3940;DHT22;1984;48.312;9.244;2023-04-29T11:53:10;19.70;99.90
3940;DHT22;1984;48.312;9.244;2023-04-29T11:55:36;20.00;99.90
3940;DHT22;1984;48.312;9.244;2023-04-29T11:58:03;20.10;99.90
3940;DHT22;1984;48.312;9.244;2023-04-29T12:00:29;20.30;99.90
3940;DHT22;1984;48.312;9.244;2023-04-29T12:02:55;20.20;99.90
3940;DHT22;1984;48.312;9.244;2023-04-29T12:05:24;20.00;99.90
3940;DHT22;1984;48.312;9.244;2023-04-29T12:07:50;19.90;99.90
3940;DHT22;1984;48.312;9.244;2023-04-29T12:10:16;19.90;99.90
3940;DHT22;1984;48.312;9.244;2023-04-29T12:12:42;20.00;99.90
3940;DHT22;1984;48.312;9.244;2023-04-29T12:15:11;19.80;99.90
3940;DHT22;1984;48.312;9.244;2023-04-29T12:17:38;19.60;99.90
3940;DHT22;1984;48.312;9.244;2023-04-29T12:20:08;19.50;99.90
3940;DHT22;1984;48.312;9.244;2023-04-29T12:22:35;19.50;99.90
3940;DHT22;1984;48.312;9.244;2023-04-29T12:25:03;19.70;99.90
3940;DHT22;1984;48.312;9.244;2023-04-29T12:27:29;19.70;99.90
3940;DHT22;1984;48.312;9.244;2023-04-29T12:29:56;19.70;99.90
3940;DHT22;1984;48.312;9.244;2023-04-29T12:32:24;19.50;99.90
3940;DHT22;1984;48.312;9.244;2023-04-29T12:34:51;19.40;99.90
3940;DHT22;1984;48.312;9.244;2023-04-29T12:37:21;19.30;99.90
3940;DHT22;1984;48.312;9.244;2023-04-29T12:39:49;19.20;99.90
3940;DHT22;1984;48.312;9.244;2023-04-29T12:42:15;19.00;99.90
3940;DHT22;1984;48.312;9.244;2023-04-29T12:44:44;19.00;99.90
3940;DHT22;1984;48.312;9.244;2023-04-29T12:47:14;19.10;99.90
3940;DHT22;1984;48.312;9.244;2023-04-29T12:49:46;19.20;99.90
3940;DHT22;1984;48.312;9.244;2023-04-29T12:52:12;19.10;99.90
3940;DHT22;1984;48.312;9.244;2023-04-29T12:54:39;19.20;99.90
3940;DHT22;1984;48.312;9.244;2023-04-29T12:57:11;19.30;99.90
3940;DHT22;1984;48.312;9.244;2023-04-29T12:59:37;19.40;99.90
3940;DHT22;1984;48.312;9.244;2023-04-29T13:02:02;19.20;99.90
3940;DHT22;1984;48.312;9.244;2023-04-29T13:04:28;19.00;99.90
3940;DHT22;1984;48.312;9.244;2023-04-29T13:06:53;18.90;99.90
3940;DHT22;1984;48.312;9.244;2023-04-29T13:09:27;18.80;99.90
3940;DHT22;1984;48.312;9.244;2023-04-29T13:11:53;18.80;99.90
3940;DHT22;1984;48.312;9.244;2023-04-29T13:14:19;18.80;99.90
3940;DHT22;1984;48.312;9.244;2023-04-29T13:16:44;18.90;99.90
3940;DHT22;1984;48.312;9.244;2023-04-29T13:19:10;19.00;99.90
3940;DHT22;1984;48.312;9.244;2023-04-29T13:21:36;19.00;99.90
3940;DHT22;1984;48.312;9.244;2023-04-29T13:24:02;18.90;99.90
3940;DHT22;1984;48.312;9.244;2023-04-29T13:26:28;18.80;99.90
3940;DHT22;1984;48.312;9.244;2023-04-29T13:28:53;18.90;99.90
3940;DHT22;1984;48.312;9.244;2023-04-29T13:31:19;19.00;99.90
3940;DHT22;1984;48.312;9.244;2023-04-29T13:33:44;18.90;99.90
3940;DHT22;1984;48.312;9.244;2023-04-29T13:36:11;18.90;99.90
3940;DHT22;1984;48.312;9.244;2023-04-29T13:38:37;18.80;99.90
3940;DHT22;1984;48.312;9.244;2023-04-29T13:41:02;18.70;99.90
3940;DHT22;1984;48.312;9.244;2023-04-29T13:43:28;18.70;99.90
3940;DHT22;1984;48.312;9.244;2023-04-29T13:45:53;18.70;99.90
3940;DHT22;1984;48.312;9.244;2023-04-29T13:48:19;18.60;99.90
3940;DHT22;1984;48.312;9.244;2023-04-29T13:50:45;18.50;99.90
3940;DHT22;1984;48.312;9.244;2023-04-29T13:53:11;18.30;99.90
3940;DHT22;1984;48.312;9.244;2023-04-29T13:55:36;18.10;99.90
3940;DHT22;1984;48.312;9.244;2023-04-29T13:58:02;18.10;99.90
3940;DHT22;1984;48.312;9.244;2023-04-29T14:00:27;17.90;99.90
3940;DHT22;1984;48.312;9.244;2023-04-29T14:02:54;17.80;99.90
3940;DHT22;1984;48.312;9.244;2023-04-29T14:05:19;17.90;99.90
3940;DHT22;1984;48.312;9.244;2023-04-29T14:07:45;17.90;99.90
3940;DHT22;1984;48.312;9.244;2023-04-29T14:10:10;17.80;99.90
3940;DHT22;1984;48.312;9.244;2023-04-29T14:12:36;17.70;99.90
3940;DHT22;1984;48.312;9.244;2023-04-29T14:15:02;17.60;99.90
3940;DHT22;1984;48.312;9.244;2023-04-29T14:17:27;17.40;99.90
3940;DHT22;1984;48.312;9.244;2023-04-29T14:19:53;17.40;99.90
3940;DHT22;1984;48.312;9.244;2023-04-29T14:22:18;17.30;99.90
3940;DHT22;1984;48.312;9.244;2023-04-29T14:24:44;17.20;99.90
3940;DHT22;1984;48.312;9.244;2023-04-29T14:27:10;17.20;99.90
3940;DHT22;1984;48.312;9.244;2023-04-29T14:29:36;17.30;99.90
3940;DHT22;1984;48.312;9.244;2023-04-29T14:32:01;17.30;99.90
3940;DHT22;1984;48.312;9.244;2023-04-29T14:34:27;17.10;99.90
3940;DHT22;1984;48.312;9.244;2023-04-29T14:36:52;17.00;99.90
3940;DHT22;1984;48.312;9.244;2023-04-29T14:39:18;17.00;99.90
3940;DHT22;1984;48.312;9.244;2023-04-29T14:41:43;17.00;99.90
3940;DHT22;1984;48.312;9.244;2023-04-29T14:44:09;17.00;99.90
3940;DHT22;1984;48.312;9.244;2023-04-29T14:46:35;17.10;99.90
3940;DHT22;1984;48.312;9.244;2023-04-29T14:49:00;17.20;99.90
3940;DHT22;1984;48.312;9.244;2023-04-29T14:51:26;17.20;99.90
3940;DHT22;1984;48.312;9.244;2023-04-29T14:53:52;17.30;99.90
3940;DHT22;1984;48.312;9.244;2023-04-29T14:56:18;17.30;99.90
3940;DHT22;1984;48.312;9.244;2023-04-29T14:58:43;17.40;99.90
3940;DHT22;1984;48.312;9.244;2023-04-29T15:01:09;17.50;99.90
3940;DHT22;1984;48.312;9.244;2023-04-29T15:03:34;17.50;99.90
3940;DHT22;1984;48.312;9.244;2023-04-29T15:06:01;17.50;99.90
3940;DHT22;1984;48.312;9.244;2023-04-29T15:08:28;17.50;99.90
3940;DHT22;1984;48.312;9.244;2023-04-29T15:10:54;17.50;99.90
3940;DHT22;1984;48.312;9.244;2023-04-29T15:13:19;17.40;99.90
3940;DHT22;1984;48.312;9.244;2023-04-29T15:15:45;17.30;99.90
3940;DHT22;1984;48.312;9.244;2023-04-29T15:18:10;17.30;99.90
3940;DHT22;1984;48.312;9.244;2023-04-29T15:20:36;17.20;99.90
3940;DHT22;1984;48.312;9.244;2023-04-29T15:23:03;17.10;99.90
3940;DHT22;1984;48.312;9.244;2023-04-29T15:25:29;16.90;99.90
3940;DHT22;1984;48.312;9.244;2023-04-29T15:27:55;16.70;99.90
3940;DHT22;1984;48.312;9.244;2023-04-29T15:30:20;16.50;99.90
3940;DHT22;1984;48.312;9.244;2023-04-29T15:32:46;16.50;99.90
3940;DHT22;1984;48.312;9.244;2023-04-29T15:35:11;16.30;99.90
3940;DHT22;1984;48.312;9.244;2023-04-29T15:37:37;16.30;99.90
3940;DHT22;1984;48.312;9.244;2023-04-29T15:40:03;16.30;99.90
3940;DHT22;1984;48.312;9.244;2023-04-29T15:42:29;16.20;99.90
3940;DHT22;1984;48.312;9.244;2023-04-29T15:44:54;16.20;99.90
3940;DHT22;1984;48.312;9.244;2023-04-29T15:47:20;16.10;99.90
3940;DHT22;1984;48.312;9.244;2023-04-29T15:49:46;16.10;99.90
3940;DHT22;1984;48.312;9.244;2023-04-29T15:52:12;16.10;99.90
3940;DHT22;1984;48.312;9.244;2023-04-29T15:54:38;16.10;99.90
3940;DHT22;1984;48.312;9.244;2023-04-29T15:57:03;16.10;99.90
3940;DHT22;1984;48.312;9.244;2023-04-29T15:59:30;16.10;99.90
3940;DHT22;1984;48.312;9.244;2023-04-29T16:01:55;16.00;99.90
3940;DHT22;1984;48.312;9.244;2023-04-29T16:04:21;15.90;99.90
3940;DHT22;1984;48.312;9.244;2023-04-29T16:06:46;15.70;99.90
3940;DHT22;1984;48.312;9.244;2023-04-29T16:09:12;15.60;99.90
3940;DHT22;1984;48.312;9.244;2023-04-29T16:11:38;15.50;99.90
3940;DHT22;1984;48.312;9.244;2023-04-29T16:14:03;15.30;99.90
3940;DHT22;1984;48.312;9.244;2023-04-29T16:16:29;15.10;99.90
3940;DHT22;1984;48.312;9.244;2023-04-29T16:18:55;15.00;99.90
3940;DHT22;1984;48.312;9.244;2023-04-29T16:21:21;14.80;99.90
3940;DHT22;1984;48.312;9.244;2023-04-29T16:23:47;14.70;99.90
3940;DHT22;1984;48.312;9.244;2023-04-29T16:26:12;14.50;99.90